CW4666 Weather Reports


time (UTC)temp
C
wind
direction
speed
KPH
gust
KPH
rain 1hr
cm
rain 24hr
cm
rain mn
cm
humidity
%
barometer
mb
20180421190618 18 169 0.0 0.0 0.00 0.00 0.00 71 1012.1
20180421180618 19 150 3.2 14.5 0.00 0.00 0.00 70 1011.6
20180421170617 19 116 11.3 29.0 0.00 0.00 0.00 72 1011.2
20180421170125 19 111 11.3 29.0 0.00 0.00 0.00 74 1011.2
20180421160617 18 118 16.1 25.7 0.00 0.00 0.00 75 1011.1
20180421160124 18 118 8.0 25.7 0.00 0.00 0.00 75 1011.2
20180421150618 17 113 8.0 22.5 0.00 0.00 0.00 80 1011.5
20180421150124 17 104 14.5 32.2 0.00 0.00 0.00 81 1011.6
20180421140617 18 0 0.0 0.0 0.00 0.00 0.00 73 1012.1
20180421130124 18 0 0.0 0.0 0.00 0.00 0.00 73 1012.7
20180421120617 18 0 0.0 0.0 0.00 0.00 0.00 73 1013.8
20180421110617 18 0 0.0 0.0 0.00 0.00 0.00 73 1014.2
20180421100617 18 199 6.4 14.5 0.00 0.00 0.00 71 1011.8
20180421100123 18 58 0.0 25.7 0.00 0.00 0.00 70 1011.0
20180421090617 17 81 11.3 32.2 0.00 0.00 0.00 73 1010.3
20180421070124 21 0 0.0 0.0 0.00 0.00 0.00 54 1011.4
20180421060124 21 0 0.0 0.0 0.00 0.00 0.00 54 1011.3
20180421050616 21 0 0.0 0.0 0.00 0.00 0.00 54 1011.5
20180421050123 21 0 0.0 0.0 0.00 0.00 0.00 54 1011.5
20180421040617 21 0 0.0 0.0 0.00 0.00 0.00 54 1011.7
20180421040123 21 0 0.0 0.0 0.00 0.00 0.00 54 1011.9
20180421030124 21 0 0.0 0.0 0.00 0.00 0.00 54 1011.6
20180421020616 21 0 0.0 0.0 0.00 0.00 0.00 54 1011.8
20180421020123 21 0 0.0 0.0 0.00 0.00 0.00 54 1011.9
20180421010616 21 0 0.0 0.0 0.00 0.00 0.00 54 1011.6
20180421010124 21 0 0.0 0.0 0.00 0.00 0.00 54 1011.7
20180421000616 21 0 0.0 0.0 0.00 0.00 0.00 54 1011.8
20180421000122 21 0 0.0 0.0 0.00 0.00 0.00 54 1011.8
20180420230616 21 0 0.0 0.0 0.00 0.00 0.00 54 1012.0
20180420220616 21 0 0.0 0.0 0.00 0.00 0.00 54 1012.8
20180420220122 21 0 0.0 0.0 0.00 0.00 0.00 54 1012.4
20180420210617 21 0 0.0 0.0 0.00 0.00 0.00 54 1012.5
20180420210123 21 0 0.0 0.0 0.00 0.00 0.00 54 1012.5
20180420200618 21 0 0.0 0.0 0.00 0.00 0.00 54 1012.5
20180420200122 21 0 0.0 0.0 0.00 0.00 0.00 54 1012.4